sensor_id;sensor_type;location;lat;lon;timestamp;P1;durP1;ratioP1;P2;durP2;ratioP2
4353;SDS011;11018;51.258;6.806;2022-07-23T00:01:58;32.87;;;18.87;;
4353;SDS011;11018;51.258;6.806;2022-07-23T00:04:24;33.88;;;20.58;;
4353;SDS011;11018;51.258;6.806;2022-07-23T00:06:49;40.03;;;20.70;;
4353;SDS011;11018;51.258;6.806;2022-07-23T00:09:15;37.72;;;21.15;;
4353;SDS011;11018;51.258;6.806;2022-07-23T00:11:42;36.28;;;21.02;;
4353;SDS011;11018;51.258;6.806;2022-07-23T00:14:08;36.00;;;20.57;;
4353;SDS011;11018;51.258;6.806;2022-07-23T00:16:34;40.30;;;22.17;;
4353;SDS011;11018;51.258;6.806;2022-07-23T00:18:59;38.37;;;22.90;;
4353;SDS011;11018;51.258;6.806;2022-07-23T00:21:27;33.55;;;20.13;;
4353;SDS011;11018;51.258;6.806;2022-07-23T00:23:52;37.95;;;20.75;;
4353;SDS011;11018;51.258;6.806;2022-07-23T00:26:18;31.30;;;19.40;;
4353;SDS011;11018;51.258;6.806;2022-07-23T00:28:44;30.60;;;19.70;;
4353;SDS011;11018;51.258;6.806;2022-07-23T00:31:09;36.47;;;22.13;;
4353;SDS011;11018;51.258;6.806;2022-07-23T00:33:35;32.57;;;20.20;;
4353;SDS011;11018;51.258;6.806;2022-07-23T00:36:00;33.53;;;20.53;;
4353;SDS011;11018;51.258;6.806;2022-07-23T00:38:26;33.92;;;20.00;;
4353;SDS011;11018;51.258;6.806;2022-07-23T00:40:52;35.10;;;19.77;;
4353;SDS011;11018;51.258;6.806;2022-07-23T00:43:19;38.53;;;21.23;;
4353;SDS011;11018;51.258;6.806;2022-07-23T00:45:45;43.50;;;22.02;;
4353;SDS011;11018;51.258;6.806;2022-07-23T00:48:11;36.72;;;22.00;;
4353;SDS011;11018;51.258;6.806;2022-07-23T00:50:37;36.67;;;23.17;;
4353;SDS011;11018;51.258;6.806;2022-07-23T00:53:02;34.70;;;22.07;;
4353;SDS011;11018;51.258;6.806;2022-07-23T00:55:28;33.97;;;20.13;;
4353;SDS011;11018;51.258;6.806;2022-07-23T00:57:54;38.53;;;21.53;;
4353;SDS011;11018;51.258;6.806;2022-07-23T01:00:20;35.95;;;21.20;;
4353;SDS011;11018;51.258;6.806;2022-07-23T01:02:46;32.42;;;20.40;;
4353;SDS011;11018;51.258;6.806;2022-07-23T01:05:12;35.13;;;19.75;;
4353;SDS011;11018;51.258;6.806;2022-07-23T01:07:38;31.40;;;20.10;;
4353;SDS011;11018;51.258;6.806;2022-07-23T01:10:04;33.20;;;19.37;;
4353;SDS011;11018;51.258;6.806;2022-07-23T01:12:50;31.50;;;19.70;;
4353;SDS011;11018;51.258;6.806;2022-07-23T01:15:15;30.83;;;19.83;;
4353;SDS011;11018;51.258;6.806;2022-07-23T01:17:41;35.05;;;20.40;;
4353;SDS011;11018;51.258;6.806;2022-07-23T01:20:07;39.67;;;18.80;;
4353;SDS011;11018;51.258;6.806;2022-07-23T01:22:32;40.90;;;21.40;;
4353;SDS011;11018;51.258;6.806;2022-07-23T01:24:58;46.40;;;21.53;;
4353;SDS011;11018;51.258;6.806;2022-07-23T01:27:24;37.07;;;21.10;;
4353;SDS011;11018;51.258;6.806;2022-07-23T01:29:49;34.80;;;20.85;;
4353;SDS011;11018;51.258;6.806;2022-07-23T01:32:15;37.87;;;21.17;;
4353;SDS011;11018;51.258;6.806;2022-07-23T01:34:40;36.87;;;21.60;;
4353;SDS011;11018;51.258;6.806;2022-07-23T01:37:06;35.03;;;21.73;;
4353;SDS011;11018;51.258;6.806;2022-07-23T01:39:32;42.13;;;24.27;;
4353;SDS011;11018;51.258;6.806;2022-07-23T01:41:57;42.17;;;22.73;;
4353;SDS011;11018;51.258;6.806;2022-07-23T01:44:23;39.20;;;22.80;;
4353;SDS011;11018;51.258;6.806;2022-07-23T01:46:48;40.72;;;23.65;;
4353;SDS011;11018;51.258;6.806;2022-07-23T01:49:15;40.85;;;24.20;;
4353;SDS011;11018;51.258;6.806;2022-07-23T01:51:40;40.80;;;23.70;;
4353;SDS011;11018;51.258;6.806;2022-07-23T01:54:24;40.40;;;23.20;;
4353;SDS011;11018;51.258;6.806;2022-07-23T01:56:56;38.60;;;22.33;;
4353;SDS011;11018;51.258;6.806;2022-07-23T01:59:22;37.90;;;21.83;;
4353;SDS011;11018;51.258;6.806;2022-07-23T02:01:48;40.13;;;22.17;;
4353;SDS011;11018;51.258;6.806;2022-07-23T02:04:18;36.53;;;21.00;;
4353;SDS011;11018;51.258;6.806;2022-07-23T02:06:48;42.88;;;21.75;;
4353;SDS011;11018;51.258;6.806;2022-07-23T02:09:14;35.03;;;21.55;;
4353;SDS011;11018;51.258;6.806;2022-07-23T02:11:40;36.50;;;18.98;;
4353;SDS011;11018;51.258;6.806;2022-07-23T02:14:06;32.77;;;19.77;;
4353;SDS011;11018;51.258;6.806;2022-07-23T02:16:32;35.60;;;19.60;;
4353;SDS011;11018;51.258;6.806;2022-07-23T02:18:57;33.73;;;21.00;;
4353;SDS011;11018;51.258;6.806;2022-07-23T02:21:23;30.43;;;19.70;;
4353;SDS011;11018;51.258;6.806;2022-07-23T02:23:49;35.00;;;19.60;;
4353;SDS011;11018;51.258;6.806;2022-07-23T02:26:14;34.90;;;21.13;;
4353;SDS011;11018;51.258;6.806;2022-07-23T02:28:40;32.10;;;20.75;;
4353;SDS011;11018;51.258;6.806;2022-07-23T02:31:05;32.60;;;18.90;;
4353;SDS011;11018;51.258;6.806;2022-07-23T02:33:32;34.40;;;19.37;;
4353;SDS011;11018;51.258;6.806;2022-07-23T02:35:58;34.38;;;20.05;;
4353;SDS011;11018;51.258;6.806;2022-07-23T02:38:24;39.85;;;21.52;;
4353;SDS011;11018;51.258;6.806;2022-07-23T02:40:49;34.10;;;20.20;;
4353;SDS011;11018;51.258;6.806;2022-07-23T02:43:15;37.67;;;21.25;;
4353;SDS011;11018;51.258;6.806;2022-07-23T02:45:40;30.77;;;19.90;;
4353;SDS011;11018;51.258;6.806;2022-07-23T02:48:06;39.03;;;22.20;;
4353;SDS011;11018;51.258;6.806;2022-07-23T02:50:31;38.15;;;22.60;;
4353;SDS011;11018;51.258;6.806;2022-07-23T02:52:57;36.42;;;23.05;;
4353;SDS011;11018;51.258;6.806;2022-07-23T02:55:22;46.53;;;23.97;;
4353;SDS011;11018;51.258;6.806;2022-07-23T02:57:48;36.70;;;20.80;;
4353;SDS011;11018;51.258;6.806;2022-07-23T03:00:14;44.58;;;24.45;;
4353;SDS011;11018;51.258;6.806;2022-07-23T03:02:39;40.60;;;22.50;;
4353;SDS011;11018;51.258;6.806;2022-07-23T03:05:05;40.03;;;23.70;;
4353;SDS011;11018;51.258;6.806;2022-07-23T03:07:31;36.33;;;23.17;;
4353;SDS011;11018;51.258;6.806;2022-07-23T03:09:57;33.00;;;21.30;;
4353;SDS011;11018;51.258;6.806;2022-07-23T03:12:22;42.20;;;24.00;;
4353;SDS011;11018;51.258;6.806;2022-07-23T03:14:48;39.53;;;23.80;;
4353;SDS011;11018;51.258;6.806;2022-07-23T03:17:13;42.65;;;23.63;;
4353;SDS011;11018;51.258;6.806;2022-07-23T03:19:39;45.75;;;24.20;;
4353;SDS011;11018;51.258;6.806;2022-07-23T03:22:04;45.67;;;24.70;;
4353;SDS011;11018;51.258;6.806;2022-07-23T03:24:30;43.60;;;23.80;;
4353;SDS011;11018;51.258;6.806;2022-07-23T03:27:14;48.00;;;25.60;;
4353;SDS011;11018;51.258;6.806;2022-07-23T03:29:40;42.38;;;23.67;;
4353;SDS011;11018;51.258;6.806;2022-07-23T03:32:06;46.60;;;24.30;;
4353;SDS011;11018;51.258;6.806;2022-07-23T03:34:31;43.37;;;24.57;;
4353;SDS011;11018;51.258;6.806;2022-07-23T03:36:57;36.90;;;24.20;;
4353;SDS011;11018;51.258;6.806;2022-07-23T03:39:23;44.10;;;25.20;;
4353;SDS011;11018;51.258;6.806;2022-07-23T03:41:48;39.33;;;23.03;;
4353;SDS011;11018;51.258;6.806;2022-07-23T03:44:14;40.00;;;22.83;;
4353;SDS011;11018;51.258;6.806;2022-07-23T03:46:39;40.90;;;23.85;;
4353;SDS011;11018;51.258;6.806;2022-07-23T03:49:05;41.47;;;23.80;;
4353;SDS011;11018;51.258;6.806;2022-07-23T03:51:30;39.97;;;24.10;;
4353;SDS011;11018;51.258;6.806;2022-07-23T03:53:57;37.60;;;22.92;;
4353;SDS011;11018;51.258;6.806;2022-07-23T03:56:22;45.70;;;24.57;;
4353;SDS011;11018;51.258;6.806;2022-07-23T03:58:48;36.93;;;23.30;;
4353;SDS011;11018;51.258;6.806;2022-07-23T04:01:14;42.80;;;23.93;;
4353;SDS011;11018;51.258;6.806;2022-07-23T04:03:39;40.67;;;23.45;;
4353;SDS011;11018;51.258;6.806;2022-07-23T04:06:05;38.47;;;23.67;;
4353;SDS011;11018;51.258;6.806;2022-07-23T04:08:31;38.17;;;23.83;;
4353;SDS011;11018;51.258;6.806;2022-07-23T04:10:56;40.38;;;24.30;;
4353;SDS011;11018;51.258;6.806;2022-07-23T04:13:22;39.60;;;22.70;;
4353;SDS011;11018;51.258;6.806;2022-07-23T04:15:48;32.47;;;21.07;;
4353;SDS011;11018;51.258;6.806;2022-07-23T04:18:14;35.45;;;21.48;;
4353;SDS011;11018;51.258;6.806;2022-07-23T04:20:42;38.05;;;22.58;;
4353;SDS011;11018;51.258;6.806;2022-07-23T04:23:10;35.10;;;21.42;;
4353;SDS011;11018;51.258;6.806;2022-07-23T04:25:37;37.30;;;21.13;;
4353;SDS011;11018;51.258;6.806;2022-07-23T04:28:03;41.70;;;21.20;;
4353;SDS011;11018;51.258;6.806;2022-07-23T04:30:29;34.97;;;20.10;;
4353;SDS011;11018;51.258;6.806;2022-07-23T04:32:54;36.10;;;22.23;;
4353;SDS011;11018;51.258;6.806;2022-07-23T04:35:20;31.57;;;19.80;;
4353;SDS011;11018;51.258;6.806;2022-07-23T04:37:46;33.67;;;21.57;;
4353;SDS011;11018;51.258;6.806;2022-07-23T04:40:12;31.00;;;19.07;;
4353;SDS011;11018;51.258;6.806;2022-07-23T04:42:38;29.00;;;19.08;;
4353;SDS011;11018;51.258;6.806;2022-07-23T04:45:04;31.70;;;18.55;;
4353;SDS011;11018;51.258;6.806;2022-07-23T04:47:30;30.95;;;18.85;;
4353;SDS011;11018;51.258;6.806;2022-07-23T04:49:56;34.00;;;19.47;;
4353;SDS011;11018;51.258;6.806;2022-07-23T04:52:22;30.25;;;18.15;;
4353;SDS011;11018;51.258;6.806;2022-07-23T04:54:47;28.85;;;18.00;;
4353;SDS011;11018;51.258;6.806;2022-07-23T04:57:13;28.67;;;17.90;;
4353;SDS011;11018;51.258;6.806;2022-07-23T04:59:39;26.93;;;17.93;;
4353;SDS011;11018;51.258;6.806;2022-07-23T05:02:04;27.98;;;18.15;;
4353;SDS011;11018;51.258;6.806;2022-07-23T05:04:30;32.90;;;19.08;;
4353;SDS011;11018;51.258;6.806;2022-07-23T05:06:56;29.80;;;18.60;;
4353;SDS011;11018;51.258;6.806;2022-07-23T05:09:22;30.13;;;18.67;;
4353;SDS011;11018;51.258;6.806;2022-07-23T05:11:48;29.63;;;19.33;;
4353;SDS011;11018;51.258;6.806;2022-07-23T05:14:13;27.25;;;18.35;;
4353;SDS011;11018;51.258;6.806;2022-07-23T05:16:39;27.23;;;18.35;;
4353;SDS011;11018;51.258;6.806;2022-07-23T05:19:04;31.33;;;17.33;;
4353;SDS011;11018;51.258;6.806;2022-07-23T05:21:30;24.77;;;17.30;;
4353;SDS011;11018;51.258;6.806;2022-07-23T05:23:55;30.00;;;19.17;;
4353;SDS011;11018;51.258;6.806;2022-07-23T05:26:21;29.57;;;20.03;;
4353;SDS011;11018;51.258;6.806;2022-07-23T05:28:47;30.73;;;18.50;;
4353;SDS011;11018;51.258;6.806;2022-07-23T05:31:12;33.67;;;18.53;;
4353;SDS011;11018;51.258;6.806;2022-07-23T05:33:38;27.23;;;18.13;;
4353;SDS011;11018;51.258;6.806;2022-07-23T05:36:03;25.67;;;18.10;;
4353;SDS011;11018;51.258;6.806;2022-07-23T05:38:30;33.22;;;19.00;;
4353;SDS011;11018;51.258;6.806;2022-07-23T05:40:57;31.60;;;19.02;;
4353;SDS011;11018;51.258;6.806;2022-07-23T05:43:22;31.95;;;19.10;;
4353;SDS011;11018;51.258;6.806;2022-07-23T05:45:48;34.17;;;19.88;;
4353;SDS011;11018;51.258;6.806;2022-07-23T05:48:13;31.10;;;19.93;;
4353;SDS011;11018;51.258;6.806;2022-07-23T05:50:39;28.80;;;19.67;;
4353;SDS011;11018;51.258;6.806;2022-07-23T05:53:04;29.75;;;18.92;;
4353;SDS011;11018;51.258;6.806;2022-07-23T05:55:30;32.93;;;20.17;;
4353;SDS011;11018;51.258;6.806;2022-07-23T05:57:56;31.77;;;19.27;;
4353;SDS011;11018;51.258;6.806;2022-07-23T06:00:23;27.92;;;18.50;;
4353;SDS011;11018;51.258;6.806;2022-07-23T06:02:49;31.73;;;19.45;;
4353;SDS011;11018;51.258;6.806;2022-07-23T06:05:15;32.20;;;20.52;;
4353;SDS011;11018;51.258;6.806;2022-07-23T06:07:41;33.50;;;19.80;;
4353;SDS011;11018;51.258;6.806;2022-07-23T06:10:07;32.72;;;19.98;;
4353;SDS011;11018;51.258;6.806;2022-07-23T06:12:33;31.83;;;20.13;;
4353;SDS011;11018;51.258;6.806;2022-07-23T06:14:59;32.53;;;19.13;;
4353;SDS011;11018;51.258;6.806;2022-07-23T06:17:24;29.37;;;19.07;;
4353;SDS011;11018;51.258;6.806;2022-07-23T06:19:51;34.25;;;20.80;;
4353;SDS011;11018;51.258;6.806;2022-07-23T06:22:17;33.70;;;20.67;;
4353;SDS011;11018;51.258;6.806;2022-07-23T06:24:43;31.77;;;20.60;;
4353;SDS011;11018;51.258;6.806;2022-07-23T06:27:09;33.28;;;20.83;;
4353;SDS011;11018;51.258;6.806;2022-07-23T06:29:34;35.00;;;21.77;;
4353;SDS011;11018;51.258;6.806;2022-07-23T06:32:00;40.10;;;21.40;;
4353;SDS011;11018;51.258;6.806;2022-07-23T06:34:25;35.27;;;21.80;;
4353;SDS011;11018;51.258;6.806;2022-07-23T06:36:51;32.97;;;20.60;;
4353;SDS011;11018;51.258;6.806;2022-07-23T06:39:17;43.75;;;24.17;;
4353;SDS011;11018;51.258;6.806;2022-07-23T06:41:42;44.10;;;25.63;;
4353;SDS011;11018;51.258;6.806;2022-07-23T06:44:08;46.23;;;28.20;;
4353;SDS011;11018;51.258;6.806;2022-07-23T06:46:34;44.20;;;24.00;;
4353;SDS011;11018;51.258;6.806;2022-07-23T06:48:59;31.27;;;20.85;;
4353;SDS011;11018;51.258;6.806;2022-07-23T06:51:25;40.55;;;22.70;;
4353;SDS011;11018;51.258;6.806;2022-07-23T06:53:51;36.43;;;23.23;;
4353;SDS011;11018;51.258;6.806;2022-07-23T06:56:16;40.87;;;22.60;;
4353;SDS011;11018;51.258;6.806;2022-07-23T06:58:42;33.45;;;21.95;;
4353;SDS011;11018;51.258;6.806;2022-07-23T07:01:07;37.20;;;22.00;;
4353;SDS011;11018;51.258;6.806;2022-07-23T07:03:33;38.33;;;21.47;;
4353;SDS011;11018;51.258;6.806;2022-07-23T07:05:58;41.70;;;22.17;;
4353;SDS011;11018;51.258;6.806;2022-07-23T07:08:24;34.10;;;21.58;;
4353;SDS011;11018;51.258;6.806;2022-07-23T07:10:50;40.50;;;22.20;;
4353;SDS011;11018;51.258;6.806;2022-07-23T07:13:15;36.13;;;22.00;;
4353;SDS011;11018;51.258;6.806;2022-07-23T07:15:41;39.30;;;22.13;;
4353;SDS011;11018;51.258;6.806;2022-07-23T07:18:07;36.78;;;21.65;;
4353;SDS011;11018;51.258;6.806;2022-07-23T07:20:32;41.63;;;21.88;;
4353;SDS011;11018;51.258;6.806;2022-07-23T07:22:58;44.47;;;24.40;;
4353;SDS011;11018;51.258;6.806;2022-07-23T07:25:23;41.20;;;24.30;;
4353;SDS011;11018;51.258;6.806;2022-07-23T07:27:49;52.53;;;26.17;;
4353;SDS011;11018;51.258;6.806;2022-07-23T07:30:15;43.43;;;26.60;;
4353;SDS011;11018;51.258;6.806;2022-07-23T07:32:40;47.63;;;26.30;;
4353;SDS011;11018;51.258;6.806;2022-07-23T07:35:06;43.83;;;26.67;;
4353;SDS011;11018;51.258;6.806;2022-07-23T07:37:32;45.53;;;25.95;;
4353;SDS011;11018;51.258;6.806;2022-07-23T07:39:58;48.17;;;26.10;;
4353;SDS011;11018;51.258;6.806;2022-07-23T07:42:24;42.33;;;26.43;;
4353;SDS011;11018;51.258;6.806;2022-07-23T07:44:49;43.28;;;25.65;;
4353;SDS011;11018;51.258;6.806;2022-07-23T07:47:15;46.40;;;26.98;;
4353;SDS011;11018;51.258;6.806;2022-07-23T07:49:44;47.70;;;30.63;;
4353;SDS011;11018;51.258;6.806;2022-07-23T07:52:09;53.80;;;32.90;;
4353;SDS011;11018;51.258;6.806;2022-07-23T07:54:35;48.70;;;32.50;;
4353;SDS011;11018;51.258;6.806;2022-07-23T07:57:01;67.05;;;41.40;;
4353;SDS011;11018;51.258;6.806;2022-07-23T07:59:27;72.03;;;44.17;;
4353;SDS011;11018;51.258;6.806;2022-07-23T08:01:52;64.93;;;42.92;;
4353;SDS011;11018;51.258;6.806;2022-07-23T08:04:18;59.92;;;40.22;;
4353;SDS011;11018;51.258;6.806;2022-07-23T08:06:44;55.93;;;33.97;;
4353;SDS011;11018;51.258;6.806;2022-07-23T08:09:09;55.20;;;36.70;;
4353;SDS011;11018;51.258;6.806;2022-07-23T08:11:35;58.22;;;40.63;;
4353;SDS011;11018;51.258;6.806;2022-07-23T08:14:00;75.60;;;44.22;;
4353;SDS011;11018;51.258;6.806;2022-07-23T08:16:26;63.37;;;43.50;;
4353;SDS011;11018;51.258;6.806;2022-07-23T08:18:52;63.87;;;41.60;;
4353;SDS011;11018;51.258;6.806;2022-07-23T08:21:17;55.67;;;40.65;;
4353;SDS011;11018;51.258;6.806;2022-07-23T08:23:43;58.88;;;42.13;;
4353;SDS011;11018;51.258;6.806;2022-07-23T08:26:09;54.80;;;43.03;;
4353;SDS011;11018;51.258;6.806;2022-07-23T08:28:34;55.60;;;41.10;;
4353;SDS011;11018;51.258;6.806;2022-07-23T08:31:00;59.25;;;42.17;;
4353;SDS011;11018;51.258;6.806;2022-07-23T08:33:26;53.38;;;36.47;;
4353;SDS011;11018;51.258;6.806;2022-07-23T08:35:52;48.03;;;35.58;;
4353;SDS011;11018;51.258;6.806;2022-07-23T08:38:18;43.10;;;33.45;;
4353;SDS011;11018;51.258;6.806;2022-07-23T08:40:50;45.92;;;32.50;;
4353;SDS011;11018;51.258;6.806;2022-07-23T08:43:18;43.13;;;28.50;;
4353;SDS011;11018;51.258;6.806;2022-07-23T08:45:48;36.05;;;23.77;;
4353;SDS011;11018;51.258;6.806;2022-07-23T08:48:19;38.05;;;25.13;;
4353;SDS011;11018;51.258;6.806;2022-07-23T08:50:48;39.35;;;24.73;;
4353;SDS011;11018;51.258;6.806;2022-07-23T08:53:15;38.95;;;26.88;;
4353;SDS011;11018;51.258;6.806;2022-07-23T08:55:49;37.20;;;25.63;;
4353;SDS011;11018;51.258;6.806;2022-07-23T08:58:16;40.08;;;22.38;;
4353;SDS011;11018;51.258;6.806;2022-07-23T09:00:42;32.72;;;20.27;;
4353;SDS011;11018;51.258;6.806;2022-07-23T09:03:15;27.38;;;18.42;;
4353;SDS011;11018;51.258;6.806;2022-07-23T09:05:43;24.70;;;15.57;;
4353;SDS011;11018;51.258;6.806;2022-07-23T09:08:13;23.35;;;15.73;;
4353;SDS011;11018;51.258;6.806;2022-07-23T09:10:51;28.65;;;18.10;;
4353;SDS011;11018;51.258;6.806;2022-07-23T09:13:25;24.30;;;16.30;;
4353;SDS011;11018;51.258;6.806;2022-07-23T09:16:05;21.55;;;14.77;;
4353;SDS011;11018;51.258;6.806;2022-07-23T09:18:52;24.35;;;15.95;;
4353;SDS011;11018;51.258;6.806;2022-07-23T09:21:30;25.93;;;16.80;;
4353;SDS011;11018;51.258;6.806;2022-07-23T09:24:04;20.63;;;14.95;;
4353;SDS011;11018;51.258;6.806;2022-07-23T09:26:41;23.75;;;13.25;;
4353;SDS011;11018;51.258;6.806;2022-07-23T09:29:25;16.15;;;11.15;;
4353;SDS011;11018;51.258;6.806;2022-07-23T09:31:54;14.50;;;9.63;;
4353;SDS011;11018;51.258;6.806;2022-07-23T09:34:25;15.02;;;9.38;;
4353;SDS011;11018;51.258;6.806;2022-07-23T09:36:53;14.68;;;9.40;;
4353;SDS011;11018;51.258;6.806;2022-07-23T09:39:32;16.13;;;10.68;;
4353;SDS011;11018;51.258;6.806;2022-07-23T09:44:42;14.50;;;9.27;;
4353;SDS011;11018;51.258;6.806;2022-07-23T09:47:08;15.63;;;8.70;;
4353;SDS011;11018;51.258;6.806;2022-07-23T09:49:34;13.40;;;9.55;;
4353;SDS011;11018;51.258;6.806;2022-07-23T09:52:00;15.93;;;7.47;;
4353;SDS011;11018;51.258;6.806;2022-07-23T09:54:28;12.20;;;8.07;;
4353;SDS011;11018;51.258;6.806;2022-07-23T09:57:01;13.93;;;8.20;;
4353;SDS011;11018;51.258;6.806;2022-07-23T09:59:35;14.25;;;7.07;;
4353;SDS011;11018;51.258;6.806;2022-07-23T10:02:02;14.05;;;8.40;;
4353;SDS011;11018;51.258;6.806;2022-07-23T10:04:31;20.70;;;8.80;;
4353;SDS011;11018;51.258;6.806;2022-07-23T10:06:59;10.68;;;7.82;;
4353;SDS011;11018;51.258;6.806;2022-07-23T10:09:33;12.93;;;8.60;;
4353;SDS011;11018;51.258;6.806;2022-07-23T10:12:02;11.45;;;7.78;;
4353;SDS011;11018;51.258;6.806;2022-07-23T10:14:52;13.68;;;7.30;;
4353;SDS011;11018;51.258;6.806;2022-07-23T10:17:18;12.30;;;7.70;;
4353;SDS011;11018;51.258;6.806;2022-07-23T10:19:44;12.53;;;7.23;;
4353;SDS011;11018;51.258;6.806;2022-07-23T10:22:11;9.55;;;7.00;;
4353;SDS011;11018;51.258;6.806;2022-07-23T10:31:00;13.52;;;6.82;;
4353;SDS011;11018;51.258;6.806;2022-07-23T10:36:19;11.30;;;7.40;;
4353;SDS011;11018;51.258;6.806;2022-07-23T10:41:37;13.85;;;6.60;;
4353;SDS011;11018;51.258;6.806;2022-07-23T10:44:08;13.38;;;6.40;;
4353;SDS011;11018;51.258;6.806;2022-07-23T10:46:35;12.27;;;7.22;;
4353;SDS011;11018;51.258;6.806;2022-07-23T10:49:20;13.53;;;7.30;;
4353;SDS011;11018;51.258;6.806;2022-07-23T10:54:42;12.60;;;6.10;;
4353;SDS011;11018;51.258;6.806;2022-07-23T10:57:09;10.77;;;5.40;;
4353;SDS011;11018;51.258;6.806;2022-07-23T11:02:40;11.02;;;6.47;;
4353;SDS011;11018;51.258;6.806;2022-07-23T11:05:09;12.13;;;6.60;;
4353;SDS011;11018;51.258;6.806;2022-07-23T11:07:37;12.38;;;6.80;;
4353;SDS011;11018;51.258;6.806;2022-07-23T11:10:37;11.50;;;6.43;;
4353;SDS011;11018;51.258;6.806;2022-07-23T11:18:54;14.63;;;7.55;;
4353;SDS011;11018;51.258;6.806;2022-07-23T11:23:58;10.50;;;5.97;;
4353;SDS011;11018;51.258;6.806;2022-07-23T11:26:56;8.50;;;5.93;;
4353;SDS011;11018;51.258;6.806;2022-07-23T11:31:54;8.98;;;4.57;;
4353;SDS011;11018;51.258;6.806;2022-07-23T11:36:59;9.63;;;6.00;;
4353;SDS011;11018;51.258;6.806;2022-07-23T11:39:26;13.02;;;6.47;;
4353;SDS011;11018;51.258;6.806;2022-07-23T11:41:53;12.15;;;7.30;;
4353;SDS011;11018;51.258;6.806;2022-07-23T11:44:30;14.73;;;7.75;;
4353;SDS011;11018;51.258;6.806;2022-07-23T11:47:01;11.35;;;6.70;;
4353;SDS011;11018;51.258;6.806;2022-07-23T11:49:28;12.95;;;7.50;;
4353;SDS011;11018;51.258;6.806;2022-07-23T11:52:07;11.80;;;7.55;;
4353;SDS011;11018;51.258;6.806;2022-07-23T11:54:35;11.70;;;7.13;;
4353;SDS011;11018;51.258;6.806;2022-07-23T11:57:02;10.52;;;7.47;;
4353;SDS011;11018;51.258;6.806;2022-07-23T11:59:30;12.03;;;8.27;;
4353;SDS011;11018;51.258;6.806;2022-07-23T12:01:58;13.35;;;7.55;;
4353;SDS011;11018;51.258;6.806;2022-07-23T12:04:38;12.68;;;7.40;;
4353;SDS011;11018;51.258;6.806;2022-07-23T12:07:05;13.15;;;7.38;;
4353;SDS011;11018;51.258;6.806;2022-07-23T12:10:09;12.83;;;6.70;;
4353;SDS011;11018;51.258;6.806;2022-07-23T12:12:56;11.02;;;7.05;;
4353;SDS011;11018;51.258;6.806;2022-07-23T12:17:59;9.82;;;5.55;;
4353;SDS011;11018;51.258;6.806;2022-07-23T12:20:29;10.40;;;5.20;;
4353;SDS011;11018;51.258;6.806;2022-07-23T12:22:58;7.50;;;4.80;;
4353;SDS011;11018;51.258;6.806;2022-07-23T12:25:25;6.60;;;4.80;;
4353;SDS011;11018;51.258;6.806;2022-07-23T12:30:34;9.45;;;5.30;;
4353;SDS011;11018;51.258;6.806;2022-07-23T12:33:06;8.52;;;5.45;;
4353;SDS011;11018;51.258;6.806;2022-07-23T12:35:40;10.30;;;6.00;;
4353;SDS011;11018;51.258;6.806;2022-07-23T12:38:10;8.70;;;5.20;;
4353;SDS011;11018;51.258;6.806;2022-07-23T12:40:44;6.90;;;4.70;;
4353;SDS011;11018;51.258;6.806;2022-07-23T12:43:24;8.73;;;4.90;;
4353;SDS011;11018;51.258;6.806;2022-07-23T12:46:09;9.73;;;4.68;;
4353;SDS011;11018;51.258;6.806;2022-07-23T12:48:39;9.27;;;5.00;;
4353;SDS011;11018;51.258;6.806;2022-07-23T12:51:17;11.43;;;5.70;;
4353;SDS011;11018;51.258;6.806;2022-07-23T12:53:49;10.95;;;5.35;;
4353;SDS011;11018;51.258;6.806;2022-07-23T12:56:29;10.05;;;5.90;;
4353;SDS011;11018;51.258;6.806;2022-07-23T13:01:29;6.45;;;4.93;;
4353;SDS011;11018;51.258;6.806;2022-07-23T13:04:06;6.82;;;4.30;;
4353;SDS011;11018;51.258;6.806;2022-07-23T13:06:34;6.20;;;4.40;;
4353;SDS011;11018;51.258;6.806;2022-07-23T13:09:05;7.40;;;3.92;;
4353;SDS011;11018;51.258;6.806;2022-07-23T13:11:32;7.63;;;4.07;;
4353;SDS011;11018;51.258;6.806;2022-07-23T13:13:58;7.68;;;4.47;;
4353;SDS011;11018;51.258;6.806;2022-07-23T13:16:25;6.97;;;4.03;;
4353;SDS011;11018;51.258;6.806;2022-07-23T13:18:51;6.40;;;4.25;;
4353;SDS011;11018;51.258;6.806;2022-07-23T13:21:17;8.93;;;4.23;;
4353;SDS011;11018;51.258;6.806;2022-07-23T13:23:43;6.47;;;4.55;;
4353;SDS011;11018;51.258;6.806;2022-07-23T13:26:08;9.90;;;6.00;;
4353;SDS011;11018;51.258;6.806;2022-07-23T13:28:34;6.67;;;3.87;;
4353;SDS011;11018;51.258;6.806;2022-07-23T13:31:00;4.03;;;3.63;;
4353;SDS011;11018;51.258;6.806;2022-07-23T13:33:25;8.90;;;4.40;;
4353;SDS011;11018;51.258;6.806;2022-07-23T13:35:51;4.80;;;4.22;;
4353;SDS011;11018;51.258;6.806;2022-07-23T13:38:18;6.30;;;4.32;;
4353;SDS011;11018;51.258;6.806;2022-07-23T13:40:45;7.00;;;4.20;;
4353;SDS011;11018;51.258;6.806;2022-07-23T13:43:14;6.28;;;3.92;;
4353;SDS011;11018;51.258;6.806;2022-07-23T13:45:42;5.32;;;4.00;;
4353;SDS011;11018;51.258;6.806;2022-07-23T13:48:09;9.25;;;3.95;;
4353;SDS011;11018;51.258;6.806;2022-07-23T13:50:35;6.30;;;4.30;;
4353;SDS011;11018;51.258;6.806;2022-07-23T13:53:07;8.23;;;4.00;;
4353;SDS011;11018;51.258;6.806;2022-07-23T13:55:35;5.72;;;4.05;;
4353;SDS011;11018;51.258;6.806;2022-07-23T13:58:02;7.72;;;4.53;;
4353;SDS011;11018;51.258;6.806;2022-07-23T14:00:29;4.88;;;3.60;;
4353;SDS011;11018;51.258;6.806;2022-07-23T14:02:55;9.48;;;4.30;;
4353;SDS011;11018;51.258;6.806;2022-07-23T14:05:21;5.00;;;3.40;;
4353;SDS011;11018;51.258;6.806;2022-07-23T14:07:47;6.85;;;3.58;;
4353;SDS011;11018;51.258;6.806;2022-07-23T14:10:14;4.55;;;3.80;;
4353;SDS011;11018;51.258;6.806;2022-07-23T14:12:42;5.35;;;3.50;;
4353;SDS011;11018;51.258;6.806;2022-07-23T14:15:08;7.18;;;4.15;;
4353;SDS011;11018;51.258;6.806;2022-07-23T14:17:37;8.02;;;4.10;;
4353;SDS011;11018;51.258;6.806;2022-07-23T14:20:05;4.70;;;3.60;;
4353;SDS011;11018;51.258;6.806;2022-07-23T14:22:32;6.80;;;3.80;;
4353;SDS011;11018;51.258;6.806;2022-07-23T14:24:57;7.60;;;3.75;;
4353;SDS011;11018;51.258;6.806;2022-07-23T14:27:24;5.27;;;4.00;;
4353;SDS011;11018;51.258;6.806;2022-07-23T14:29:51;4.50;;;3.70;;
4353;SDS011;11018;51.258;6.806;2022-07-23T14:32:17;5.30;;;3.45;;
4353;SDS011;11018;51.258;6.806;2022-07-23T14:34:42;4.70;;;3.60;;
4353;SDS011;11018;51.258;6.806;2022-07-23T14:37:09;4.15;;;3.75;;
4353;SDS011;11018;51.258;6.806;2022-07-23T14:39:36;6.10;;;3.90;;
4353;SDS011;11018;51.258;6.806;2022-07-23T14:42:02;3.70;;;3.40;;
4353;SDS011;11018;51.258;6.806;2022-07-23T14:44:28;5.65;;;3.70;;
4353;SDS011;11018;51.258;6.806;2022-07-23T14:46:54;7.60;;;3.63;;
4353;SDS011;11018;51.258;6.806;2022-07-23T14:49:20;4.57;;;3.40;;
4353;SDS011;11018;51.258;6.806;2022-07-23T14:51:46;6.43;;;4.20;;
4353;SDS011;11018;51.258;6.806;2022-07-23T14:54:11;5.95;;;3.95;;
4353;SDS011;11018;51.258;6.806;2022-07-23T14:56:38;5.55;;;3.47;;
4353;SDS011;11018;51.258;6.806;2022-07-23T14:59:05;4.40;;;3.63;;
4353;SDS011;11018;51.258;6.806;2022-07-23T15:01:30;4.80;;;3.40;;
4353;SDS011;11018;51.258;6.806;2022-07-23T15:03:56;4.88;;;3.63;;
4353;SDS011;11018;51.258;6.806;2022-07-23T15:06:22;6.20;;;3.20;;
4353;SDS011;11018;51.258;6.806;2022-07-23T15:08:47;4.00;;;3.60;;
4353;SDS011;11018;51.258;6.806;2022-07-23T15:11:13;6.77;;;3.50;;
4353;SDS011;11018;51.258;6.806;2022-07-23T15:13:38;5.00;;;3.70;;
4353;SDS011;11018;51.258;6.806;2022-07-23T15:16:05;7.73;;;3.77;;
4353;SDS011;11018;51.258;6.806;2022-07-23T15:18:31;4.83;;;3.30;;
4353;SDS011;11018;51.258;6.806;2022-07-23T15:20:56;3.90;;;3.30;;
4353;SDS011;11018;51.258;6.806;2022-07-23T15:23:22;3.95;;;3.22;;
4353;SDS011;11018;51.258;6.806;2022-07-23T15:25:48;7.20;;;3.30;;